Time;durP1;ratioP1;P1;durP2;ratioP2;P2;SDS_P1;SDS_P2;PMS_P1;PMS_P2;Temp;Humidity;BMP_temperature;BMP_pressure;BME280_temperature;BME280_humidity;BME280_pressure;Samples;Min_cycle;Max_cycle;Signal;HPM_P1;HPM_P2
2022/12/30 00:01:15;;;;;;;8.60;2.13;;;;;;;8.42;100.00;100686.03;5044549;28;20048;-73
2022/12/30 00:03:42;;;;;;;5.53;2.03;;;;;;;8.36;100.00;100687.56;5046979;28;20678;-73
2022/12/30 00:06:14;;;;;;;9.80;2.40;;;;;;;8.44;100.00;100686.41;5043185;28;20600;-73
2022/12/30 00:08:48;;;;;;;0.88;0.88;;;;;;;8.46;100.00;100697.06;5037400;28;20159;-73
2022/12/30 00:11:22;;;;;;;23.13;3.63;;;;;;;8.48;100.00;100695.53;5043585;28;20882;-72
2022/12/30 00:33:35;;;;;;;10.25;2.30;;;;;;;8.48;100.00;100709.31;5043597;28;21229;-73
2022/12/30 00:36:02;;;;;;;8.95;2.58;;;;;;;8.43;100.00;100706.13;5038425;28;20056;-72
2022/12/30 00:38:29;;;;;;;11.18;2.17;;;;;;;8.44;100.00;100714.00;5040784;28;20053;-71
2022/12/30 00:43:40;;;;;;;7.85;1.75;;;;;;;8.40;100.00;100713.19;5037407;28;20048;-72
2022/12/30 00:46:07;;;;;;;5.18;2.55;;;;;;;8.34;100.00;100711.97;5039140;28;20873;-75
2022/12/30 00:56:49;;;;;;;10.63;2.42;;;;;;;8.23;100.00;100743.38;5037977;28;20048;-72
2022/12/30 00:59:16;;;;;;;9.90;1.98;;;;;;;8.27;100.00;100736.69;5041128;28;20049;-72
2022/12/30 01:01:42;;;;;;;25.98;3.30;;;;;;;8.24;100.00;100747.72;5046545;28;20052;-72
2022/12/30 01:04:09;;;;;;;9.27;2.55;;;;;;;8.26;100.00;100737.09;5034337;28;20748;-72
2022/12/30 01:06:37;;;;;;;12.73;2.03;;;;;;;8.26;100.00;100740.63;5036134;28;20052;-72
2022/12/30 01:09:04;;;;;;;9.73;2.08;;;;;;;8.26;100.00;100740.63;5033760;28;20919;-72
2022/12/30 01:11:32;;;;;;;1.88;0.88;;;;;;;8.25;100.00;100752.84;5027881;28;20799;-72
2022/12/30 01:13:59;;;;;;;9.65;1.15;;;;;;;8.20;100.00;100750.38;5045744;28;20068;-72
2022/12/30 01:16:25;;;;;;;5.53;1.38;;;;;;;8.16;100.00;100744.06;5026461;28;20059;-72
2022/12/30 01:18:52;;;;;;;4.07;1.55;;;;;;;8.13;100.00;100749.56;5033598;28;20164;-72
2022/12/30 01:21:19;;;;;;;24.65;4.40;;;;;;;8.19;100.00;100750.75;5046883;28;20055;-73
2022/12/30 01:23:45;;;;;;;7.45;1.80;;;;;;;8.13;100.00;100752.31;5045926;28;20048;-72
2022/12/30 01:26:12;;;;;;;5.80;1.30;;;;;;;8.06;100.00;100758.53;5044604;28;20869;-73
2022/12/30 01:28:39;;;;;;;9.02;1.33;;;;;;;8.09;100.00;100757.00;5047350;28;20072;-73
2022/12/30 01:31:08;;;;;;;9.85;2.38;;;;;;;8.12;100.00;100761.72;5049205;28;20048;-72
2022/12/30 01:33:35;;;;;;;18.30;2.92;;;;;;;8.11;100.00;100754.63;5039878;28;20822;-73
2022/12/30 01:36:02;;;;;;;11.35;2.35;;;;;;;8.12;100.00;100761.72;5034471;28;20061;-74
2022/12/30 01:38:30;;;;;;;10.15;2.17;;;;;;;8.05;100.00;100765.22;5029945;28;20287;-72
2022/12/30 01:40:57;;;;;;;7.13;1.73;;;;;;;8.04;100.00;100775.44;5056918;28;20066;-73
2022/12/30 01:43:42;;;;;;;15.05;3.58;;;;;;;8.03;100.00;100773.06;5042323;28;20278;-71
2022/12/30 01:46:11;;;;;;;8.65;2.35;;;;;;;8.06;100.00;100797.09;5041568;28;20564;-71
2022/12/30 01:48:38;;;;;;;7.18;2.55;;;;;;;8.06;100.00;100788.84;5040335;28;20853;-72
2022/12/30 01:51:14;;;;;;;12.40;2.63;;;;;;;8.02;100.00;100797.09;5043724;28;20155;-73
2022/12/30 01:53:48;;;;;;;19.48;2.85;;;;;;;8.02;100.00;100786.06;5043442;28;20055;-72
2022/12/30 01:56:17;;;;;;;7.78;1.95;;;;;;;8.04;100.00;100794.72;5047122;28;20056;-72
2022/12/30 01:58:56;;;;;;;11.10;2.28;;;;;;;8.01;100.00;100784.47;5046114;28;20048;-75
2022/12/30 02:01:22;;;;;;;15.52;3.05;;;;;;;8.06;100.00;100790.81;5045920;28;20044;-72
2022/12/30 02:03:57;;;;;;;8.55;1.80;;;;;;;8.04;100.00;100791.97;5046685;28;20047;-72
2022/12/30 02:06:45;;;;;;;5.40;1.88;;;;;;;7.98;100.00;100789.94;5040434;28;20060;-73
2022/12/30 02:09:12;;;;;;;7.53;2.05;;;;;;;7.99;100.00;100792.31;5038790;28;20048;-73
2022/12/30 02:11:38;;;;;;;23.52;2.55;;;;;;;7.94;100.00;100787.16;5038052;28;20049;-72
2022/12/30 02:14:06;;;;;;;5.80;0.90;;;;;;;7.95;100.00;100783.25;5042396;28;20060;-72
2022/12/30 02:16:41;;;;;;;3.47;2.40;;;;;;;7.98;100.00;100784.44;5043143;28;20513;-72
2022/12/30 02:19:52;;;;;;;23.85;3.35;;;;;;;8.07;100.00;100781.38;5045959;28;20934;-72
2022/12/30 02:22:36;;;;;;;10.10;2.28;;;;;;;7.95;100.00;100779.69;5026299;28;20052;-72
2022/12/30 02:25:02;;;;;;;11.88;2.22;;;;;;;7.95;100.00;100782.44;5022699;28;20099;-71
2022/12/30 02:28:06;;;;;;;13.45;2.65;;;;;;;7.92;100.00;100786.75;5044550;28;20056;-73
2022/12/30 02:30:32;;;;;;;7.35;1.73;;;;;;;7.89;100.00;100782.00;5048163;28;20071;-72
2022/12/30 02:33:08;;;;;;;10.82;3.15;;;;;;;7.93;100.00;100782.00;5042219;28;20131;-73
2022/12/30 02:35:34;;;;;;;16.20;3.00;;;;;;;7.92;100.00;100792.25;5039050;28;20044;-72
2022/12/30 02:38:36;;;;;;;5.03;1.23;;;;;;;7.88;100.00;100788.69;5044007;28;20067;-73
2022/12/30 02:44:39;;;;;;;22.77;3.53;;;;;;;7.88;100.00;100793.38;5044817;28;20049;-72
2022/12/30 02:47:18;;;;;;;12.18;1.85;;;;;;;7.88;100.00;100793.38;5039845;28;20052;-73
2022/12/30 02:52:14;;;;;;;14.70;2.33;;;;;;;7.86;100.00;100792.94;5045360;28;20040;-71
2022/12/30 02:52:40;;;;;;;6.88;2.03;;;;;;;7.85;100.00;100794.94;5038104;28;20049;-72
2022/12/30 02:55:07;;;;;;;5.95;1.52;;;;;;;7.92;100.00;100794.22;5037931;28;20067;-73
2022/12/30 02:57:35;;;;;;;9.35;1.73;;;;;;;7.87;100.00;100797.31;5043188;28;20049;-72
2022/12/30 03:06:37;;;;;;;9.50;1.95;;;;;;;7.88;100.00;100788.69;5066403;28;20079;-72
2022/12/30 03:09:20;;;;;;;10.73;2.10;;;;;;;7.91;100.00;100785.13;5057217;28;20067;-72
2022/12/30 03:12:21;;;;;;;2.72;1.13;;;;;;;7.93;100.00;100779.25;5068541;28;20063;-72
2022/12/30 03:14:56;;;;;;;10.65;2.00;;;;;;;7.98;100.00;100789.94;5062767;28;20135;-72
2022/12/30 03:17:25;;;;;;;;;;;;;;;7.95;100.00;100771.41;5068348;28;20565;-72
2022/12/30 03:19:56;;;;;;;17.80;2.97;;;;;;;7.97;100.00;100760.81;5066186;28;20000;-74
2022/12/30 03:28:00;;;;;;;10.70;2.30;;;;;;;7.95;100.00;100760.41;5068301;28;20060;-72
2022/12/30 03:30:29;;;;;;;10.73;1.70;;;;;;;7.98;100.00;100776.19;5060273;28;20041;-72
2022/12/30 03:32:55;;;;;;;8.05;3.50;;;;;;;7.88;100.00;100760.31;5067248;28;20048;-73
2022/12/30 03:35:27;;;;;;;14.43;2.40;;;;;;;7.93;100.00;100768.22;5067854;28;20044;-72
2022/12/30 03:37:56;;;;;;;9.35;2.05;;;;;;;7.84;100.00;100759.50;5068032;28;20056;-72
2022/12/30 03:40:35;;;;;;;2.20;1.50;;;;;;;7.87;100.00;100756.00;5066189;28;20057;-74
2022/12/30 03:43:02;;;;;;;16.55;2.42;;;;;;;7.94;100.00;100759.59;5066929;28;20070;-74
2022/12/30 03:45:28;;;;;;;18.48;2.47;;;;;;;7.86;100.00;100752.44;5066741;28;20052;-72
2022/12/30 03:47:55;;;;;;;8.20;1.88;;;;;;;7.82;100.00;100759.88;5066654;28;20574;-70
2022/12/30 03:50:21;;;;;;;7.70;1.80;;;;;;;7.78;100.00;100763.75;5062204;28;20097;-73
2022/12/30 03:52:48;;;;;;;3.65;0.73;;;;;;;7.78;100.00;100752.75;5066366;28;20133;-72
2022/12/30 03:55:15;;;;;;;6.00;1.80;;;;;;;7.80;100.00;100747.66;5064789;28;20044;-72
2022/12/30 03:57:41;;;;;;;11.23;2.60;;;;;;;7.82;100.00;100745.31;5073168;28;20048;-72
2022/12/30 04:00:09;;;;;;;8.82;1.67;;;;;;;7.85;100.00;100750.84;5066289;28;20058;-73
2022/12/30 04:02:35;;;;;;;6.70;2.70;;;;;;;7.84;100.00;100756.75;5068829;28;20055;-73
2022/12/30 04:05:02;;;;;;;19.88;2.65;;;;;;;7.85;100.00;100758.31;5062260;28;20532;-72
2022/12/30 04:07:29;;;;;;;5.07;1.20;;;;;;;7.85;100.00;100761.06;5069988;28;20057;-73
2022/12/30 04:09:55;;;;;;;16.33;2.83;;;;;;;7.80;100.00;100756.69;5067932;28;20049;-71
2022/12/30 04:12:22;;;;;;;2.65;0.73;;;;;;;7.77;100.00;100759.44;5061426;28;20072;-71
2022/12/30 04:14:48;;;;;;;7.93;2.33;;;;;;;7.82;100.00;100759.06;5065913;28;20051;-72
2022/12/30 04:17:15;;;;;;;13.93;2.55;;;;;;;7.80;100.00;100758.69;5066679;28;20045;-72
2022/12/30 04:19:41;;;;;;;18.60;2.78;;;;;;;7.70;100.00;100759.34;5065670;28;20049;-73
2022/12/30 04:22:08;;;;;;;15.60;2.60;;;;;;;7.67;100.00;100754.59;5064745;28;20051;-71
2022/12/30 04:24:34;;;;;;;20.45;3.50;;;;;;;7.61;100.00;100748.63;5063420;28;20051;-72
2022/12/30 04:27:01;;;;;;;9.88;1.77;;;;;;;7.58;100.00;100760.41;5066366;28;20052;-71
2022/12/30 04:29:27;;;;;;;7.53;1.83;;;;;;;7.56;100.00;100759.19;5064686;28;20417;-72
2022/12/30 04:31:54;;;;;;;7.35;1.80;;;;;;;7.59;100.00;100763.91;5066331;28;20056;-72
2022/12/30 04:34:20;;;;;;;7.97;2.20;;;;;;;7.58;100.00;100765.09;5065544;28;20060;-72
2022/12/30 04:36:47;;;;;;;3.97;1.02;;;;;;;7.52;100.00;100761.09;5065374;28;20048;-73
2022/12/30 04:39:13;;;;;;;23.63;4.03;;;;;;;7.56;100.00;100748.19;5066685;28;20564;-73
2022/12/30 04:41:40;;;;;;;1.90;0.93;;;;;;;7.49;100.00;100773.66;5075274;28;20037;-73
2022/12/30 04:44:06;;;;;;;9.07;1.52;;;;;;;7.50;100.00;100769.72;5064285;28;20418;-72
2022/12/30 04:46:33;;;;;;;12.98;2.25;;;;;;;7.50;100.00;100769.72;5064260;28;20048;-74
2022/12/30 04:49:00;;;;;;;8.32;1.92;;;;;;;7.40;100.00;100769.59;5067584;28;20051;-73
2022/12/30 04:51:26;;;;;;;12.30;2.10;;;;;;;7.50;100.00;100757.94;5065891;28;20044;-72
2022/12/30 04:53:53;;;;;;;5.07;1.45;;;;;;;7.45;100.00;100758.25;5064280;28;20060;-73
2022/12/30 04:56:19;;;;;;;17.73;2.92;;;;;;;7.52;100.00;100759.13;5068511;28;20126;-72
2022/12/30 04:58:51;;;;;;;8.77;1.83;;;;;;;7.45;100.00;100761.81;5070325;28;20088;-72
2022/12/30 05:01:17;;;;;;;12.27;2.65;;;;;;;7.41;100.00;100760.19;5069395;28;20131;-72
2022/12/30 05:03:44;;;;;;;6.93;1.25;;;;;;;7.41;100.00;100757.44;5069728;28;20044;-72
2022/12/30 05:06:10;;;;;;;13.68;3.08;;;;;;;7.38;100.00;100756.22;5066267;28;20616;-72
2022/12/30 05:08:37;;;;;;;10.60;2.28;;;;;;;7.37;100.00;100762.09;5070184;28;20131;-73
2022/12/30 05:11:04;;;;;;;11.45;1.70;;;;;;;7.35;100.00;100767.97;5069250;28;20052;-72
2022/12/30 05:13:30;;;;;;;19.92;3.53;;;;;;;7.39;100.00;100766.06;5070058;28;20040;-71
2022/12/30 05:15:57;;;;;;;15.13;3.13;;;;;;;7.35;100.00;100767.97;5067875;28;20625;-72
2022/12/30 05:18:23;;;;;;;16.88;2.15;;;;;;;7.29;100.00;100768.69;5068614;28;20056;-72
2022/12/30 05:20:50;;;;;;;9.02;2.50;;;;;;;7.28;100.00;100773.41;5067195;28;20106;-73
2022/12/30 05:26:14;;;;;;;9.23;1.80;;;;;;;7.24;100.00;100775.31;5057304;28;20486;-72
2022/12/30 05:28:42;;;;;;;14.18;2.17;;;;;;;7.25;100.00;100778.84;5076269;28;20044;-74
2022/12/30 05:31:09;;;;;;;18.63;3.67;;;;;;;7.26;100.00;100783.19;5070760;28;20049;-71
2022/12/30 05:33:36;;;;;;;20.27;2.97;;;;;;;7.24;100.00;100780.81;5066408;28;20044;-71
2022/12/30 05:36:03;;;;;;;15.80;3.05;;;;;;;7.18;100.00;100789.75;5067857;28;20053;-73
2022/12/30 05:38:29;;;;;;;13.00;2.95;;;;;;;7.15;100.00;100787.75;5067340;28;20395;-71
2022/12/30 05:40:56;;;;;;;17.58;2.97;;;;;;;7.11;100.00;100784.16;5068112;28;20418;-74
2022/12/30 05:43:26;;;;;;;14.65;2.72;;;;;;;7.06;100.00;100784.50;5067895;28;20040;-72
2022/12/30 05:45:52;;;;;;;14.77;2.85;;;;;;;7.09;100.00;100783.75;5068324;28;20048;-72
2022/12/30 05:48:19;;;;;;;21.55;3.53;;;;;;;7.04;100.00;100779.34;5066436;28;20417;-71
2022/12/30 05:50:49;;;;;;;12.30;2.85;;;;;;;7.01;100.00;100782.03;5069562;28;20052;-72
2022/12/30 05:53:17;;;;;;;16.23;2.97;;;;;;;6.94;100.00;100782.75;5067389;28;20391;-73
2022/12/30 05:55:43;;;;;;;16.15;2.42;;;;;;;6.94;100.00;100773.69;5066202;28;20433;-72
2022/12/30 05:58:10;;;;;;;23.23;3.00;;;;;;;6.95;100.00;100787.06;5068140;28;20061;-73
2022/12/30 06:00:37;;;;;;;17.83;2.35;;;;;;;6.87;100.00;100781.84;5068844;28;20433;-73
2022/12/30 06:03:03;;;;;;;13.07;3.17;;;;;;;6.86;100.00;100777.50;5068413;28;20430;-72
2022/12/30 06:05:30;;;;;;;17.65;2.80;;;;;;;6.83;100.00;100768.06;5066787;28;20140;-72
2022/12/30 06:07:56;;;;;;;14.52;2.58;;;;;;;6.79;100.00;100780.16;5068486;28;20056;-72
2022/12/30 06:10:23;;;;;;;12.45;2.70;;;;;;;6.82;100.00;100773.94;5064624;28;20048;-72
2022/12/30 06:12:49;;;;;;;14.98;2.72;;;;;;;6.84;100.00;100771.56;5063521;28;20040;-73
2022/12/30 06:15:16;;;;;;;20.90;3.08;;;;;;;6.81;100.00;100764.06;5067832;28;20044;-73
2022/12/30 06:17:42;;;;;;;12.38;2.65;;;;;;;6.84;100.00;100772.38;5073516;28;20060;-72
2022/12/30 06:20:09;;;;;;;14.35;3.00;;;;;;;6.80;100.00;100755.03;5067062;28;20055;-72
2022/12/30 06:22:36;;;;;;;17.27;3.45;;;;;;;6.83;100.00;100765.31;5065649;28;20043;-72
2022/12/30 06:25:02;;;;;;;10.10;2.78;;;;;;;6.88;100.00;100761.41;5068765;28;20057;-72
2022/12/30 06:27:29;;;;;;;12.32;2.25;;;;;;;6.82;100.00;100749.16;5067765;28;20052;-73
2022/12/30 06:29:55;;;;;;;13.63;3.10;;;;;;;6.86;100.00;100750.81;5073195;28;20548;-71
2022/12/30 06:32:22;;;;;;;6.82;1.67;;;;;;;6.89;100.00;100746.53;5075689;28;20044;-72
2022/12/30 06:34:48;;;;;;;8.32;1.95;;;;;;;6.95;100.00;100756.81;5066219;28;20418;-71
2022/12/30 06:37:15;;;;;;;13.25;3.45;;;;;;;6.99;100.00;100768.66;5066486;28;20059;-72
2022/12/30 06:39:41;;;;;;;16.02;3.97;;;;;;;7.04;100.00;100753.78;5067673;28;20135;-71
2022/12/30 06:42:08;;;;;;;15.07;2.38;;;;;;;7.06;100.00;100751.47;5066520;28;20075;-72
2022/12/30 06:44:34;;;;;;;11.25;2.03;;;;;;;7.09;100.00;100762.50;5060799;28;20052;-71
2022/12/30 06:47:01;;;;;;;14.82;3.13;;;;;;;7.14;100.00;100758.66;5068510;28;20623;-72
2022/12/30 06:49:27;;;;;;;12.43;3.55;;;;;;;7.20;100.00;100757.16;5061783;28;20413;-72
2022/12/30 06:51:54;;;;;;;10.57;2.15;;;;;;;7.14;100.00;100753.16;5066795;28;20054;-71
2022/12/30 06:54:20;;;;;;;11.07;2.83;;;;;;;7.18;100.00;100737.47;5066272;28;20049;-72
2022/12/30 06:56:46;;;;;;;11.50;1.65;;;;;;;7.16;100.00;100740.59;5076218;28;20060;-73
2022/12/30 06:59:13;;;;;;;5.18;1.25;;;;;;;7.11;100.00;100740.94;5066984;28;20048;-73
2022/12/30 07:01:39;;;;;;;8.38;1.70;;;;;;;7.13;100.00;100746.06;5059349;28;20080;-72
2022/12/30 07:04:06;;;;;;;14.18;2.97;;;;;;;7.19;100.00;100734.34;5059796;28;20144;-73
2022/12/30 07:06:33;;;;;;;4.97;1.25;;;;;;;7.17;100.00;100739.44;5063915;28;20066;-72
2022/12/30 07:08:59;;;;;;;17.70;3.17;;;;;;;7.30;100.00;100740.75;5066446;28;20054;-72
2022/12/30 07:11:26;;;;;;;16.08;3.72;;;;;;;7.31;100.00;100734.13;5065325;28;20048;-72
2022/12/30 07:13:52;;;;;;;14.15;3.63;;;;;;;7.29;100.00;100721.91;5065757;28;20048;-72
2022/12/30 07:16:19;;;;;;;8.13;2.03;;;;;;;7.30;100.00;100715.22;5066404;28;20052;-72
2022/12/30 07:18:45;;;;;;;20.45;2.53;;;;;;;7.35;100.00;100710.16;5064814;28;20049;-73
2022/12/30 07:21:12;;;;;;;4.50;1.95;;;;;;;7.36;100.00;100717.25;5065309;28;20045;-72
2022/12/30 07:23:38;;;;;;;8.90;1.85;;;;;;;7.38;100.00;100708.63;5065645;28;20048;-71
2022/12/30 07:26:05;;;;;;;15.65;2.78;;;;;;;7.42;100.00;100712.19;5068143;28;20506;-72
2022/12/30 07:28:31;;;;;;;11.48;2.38;;;;;;;7.36;100.00;100721.97;5065799;28;20135;-72
2022/12/30 07:30:58;;;;;;;8.68;1.90;;;;;;;7.46;100.00;100711.06;5064831;28;20578;-72
2022/12/30 07:33:24;;;;;;;11.63;2.50;;;;;;;7.50;100.00;100716.63;5060700;28;20068;-71
2022/12/30 07:35:51;;;;;;;8.73;1.60;;;;;;;7.42;100.00;100704.75;5067299;28;20052;-71
2022/12/30 07:38:17;;;;;;;5.72;2.42;;;;;;;7.40;100.00;100718.09;5061946;28;20056;-72
2022/12/30 07:40:44;;;;;;;14.30;2.40;;;;;;;7.52;100.00;100711.53;5067749;28;20049;-73
2022/12/30 07:43:10;;;;;;;8.02;1.85;;;;;;;7.52;100.00;100714.28;5063688;28;20056;-73
2022/12/30 07:45:37;;;;;;;4.60;1.83;;;;;;;7.54;100.00;100714.72;5065059;28;20048;-72
2022/12/30 07:48:05;;;;;;;15.60;2.45;;;;;;;7.52;100.00;100706.03;5058922;28;20102;-72
2022/12/30 07:50:31;;;;;;;10.02;2.75;;;;;;;7.58;100.00;100710.84;5064948;28;20057;-73
2022/12/30 07:52:59;;;;;;;21.17;3.55;;;;;;;7.56;100.00;100698.63;5061064;28;20068;-71
2022/12/30 07:55:25;;;;;;;4.93;1.10;;;;;;;7.59;100.00;100687.63;5070607;28;20048;-72
2022/12/30 07:57:52;;;;;;;7.93;2.13;;;;;;;7.65;100.00;100685.31;5065119;28;20060;-72
2022/12/30 08:00:18;;;;;;;5.55;1.52;;;;;;;7.64;100.00;100683.75;5062237;28;20490;-72
2022/12/30 08:02:52;;;;;;;8.30;2.55;;;;;;;7.73;100.00;100675.97;5063697;28;20160;-71
2022/12/30 08:05:19;;;;;;;3.63;1.70;;;;;;;7.72;100.00;100668.88;5066450;28;20483;-72
2022/12/30 08:07:45;;;;;;;6.63;1.48;;;;;;;7.76;100.00;100672.44;5064604;28;20051;-72
2022/12/30 08:10:11;;;;;;;15.43;2.83;;;;;;;7.80;100.00;100665.03;5063674;28;20083;-72
2022/12/30 08:12:38;;;;;;;4.60;1.55;;;;;;;7.86;100.00;100661.53;5064440;28;20056;-71
2022/12/30 08:15:05;;;;;;;11.77;2.45;;;;;;;8.02;100.00;100666.78;5072521;28;20044;-70
2022/12/30 08:17:31;;;;;;;2.92;1.27;;;;;;;8.02;100.00;100670.34;5065335;28;20055;-72
2022/12/30 08:19:58;;;;;;;4.22;1.83;;;;;;;8.10;100.00;100664.88;5064752;28;20049;-71
2022/12/30 08:22:24;;;;;;;3.83;1.17;;;;;;;8.13;100.00;100656.63;5065625;28;20045;-71
2022/12/30 08:24:51;;;;;;;5.40;1.55;;;;;;;8.15;100.00;100651.53;5065118;28;20060;-74
2022/12/30 08:27:17;;;;;;;2.85;0.82;;;;;;;8.21;100.00;100652.78;5065319;28;20055;-73
2022/12/30 08:29:44;;;;;;;1.60;0.95;;;;;;;8.33;100.00;100637.91;5065252;28;20059;-71
2022/12/30 08:32:11;;;;;;;5.40;1.60;;;;;;;8.36;100.00;100635.16;5070509;28;20059;-72
2022/12/30 08:34:37;;;;;;;4.70;1.60;;;;;;;8.36;100.00;100626.09;5070730;28;20044;-72
2022/12/30 08:37:04;;;;;;;9.43;2.05;;;;;;;8.43;100.00;100623.41;5067306;28;20067;-73
2022/12/30 08:39:30;;;;;;;8.38;1.88;;;;;;;8.45;100.00;100621.84;5067025;28;20084;-73
2022/12/30 08:41:57;;;;;;;4.88;1.23;;;;;;;8.44;100.00;100628.50;5068296;28;20406;-72
2022/12/30 08:44:24;;;;;;;9.15;1.70;;;;;;;8.54;100.00;100615.97;5067296;28;20049;-72
2022/12/30 08:46:51;;;;;;;2.30;1.05;;;;;;;8.52;100.00;100610.84;5071236;28;20052;-71
2022/12/30 08:49:18;;;;;;;3.60;1.15;;;;;;;8.58;100.00;100609.31;5069334;28;20048;-72
2022/12/30 08:51:44;;;;;;;6.10;1.25;;;;;;;8.62;100.00;100612.06;5067599;28;20148;-72
2022/12/30 08:54:11;;;;;;;9.82;2.03;;;;;;;8.68;100.00;100605.03;5069698;28;20465;-72
2022/12/30 08:56:41;;;;;;;3.88;1.42;;;;;;;8.74;100.00;100593.22;5065358;28;20088;-71
2022/12/30 08:59:09;;;;;;;2.47;1.20;;;;;;;8.76;100.00;100592.81;5071191;28;20047;-72
2022/12/30 09:01:41;;;;;;;6.57;1.75;;;;;;;8.83;100.00;100598.38;5066662;28;20049;-73
2022/12/30 09:04:10;;;;;;;5.47;1.55;;;;;;;8.92;100.00;100583.06;5068691;28;20048;-74
2022/12/30 09:06:39;;;;;;;1.70;1.02;;;;;;;8.93;100.00;100595.66;5072037;28;20512;-75
2022/12/30 09:09:07;;;;;;;7.78;2.15;;;;;;;9.06;100.00;100593.34;5064723;28;20147;-75
2022/12/30 09:11:36;;;;;;;3.58;1.45;;;;;;;9.02;100.00;100582.31;5067986;28;20048;-73
2022/12/30 09:14:05;;;;;;;8.45;1.30;;;;;;;9.10;100.00;100589.41;5071123;28;20112;-75
2022/12/30 09:16:33;;;;;;;7.50;1.45;;;;;;;9.18;100.00;100581.94;5073900;28;20817;-72
2022/12/30 09:18:59;;;;;;;2.17;1.23;;;;;;;9.22;100.00;100591.03;5072920;28;20452;-70
2022/12/30 09:21:26;;;;;;;6.50;1.50;;;;;;;9.26;100.00;100584.34;5068174;28;20090;-71
2022/12/30 09:23:54;;;;;;;9.98;1.45;;;;;;;9.36;100.00;100586.31;5067645;28;20481;-69
2022/12/30 09:26:23;;;;;;;9.95;1.80;;;;;;;9.42;100.00;100565.41;5070521;28;20045;-70
2022/12/30 09:28:50;;;;;;;0.75;0.50;;;;;;;9.52;100.00;100580.44;5068662;28;20048;-72
2022/12/30 09:31:17;;;;;;;1.45;0.68;;;;;;;9.51;100.00;100576.88;5068995;28;20048;-72
2022/12/30 09:33:44;;;;;;;3.95;1.20;;;;;;;9.56;100.00;100576.50;5068399;28;20086;-69
2022/12/30 09:36:12;;;;;;;4.72;1.10;;;;;;;9.61;100.00;100570.56;5068129;28;20057;-70
2022/12/30 09:38:38;;;;;;;8.60;1.50;;;;;;;9.73;100.00;100569.38;5067615;28;20445;-70
2022/12/30 09:43:15;;;;;;;1.02;0.85;;;;;;;9.77;100.00;100562.69;5068707;28;20075;-70
2022/12/30 09:44:19;;;;;;;0.60;0.60;;;;;;;9.77;100.00;100556.34;5067353;28;20051;-70
2022/12/30 09:46:52;;;;;;;9.55;1.95;;;;;;;9.89;100.00;100550.44;5069356;28;20076;-71
2022/12/30 09:49:41;;;;;;;9.68;1.70;;;;;;;9.76;100.00;100547.25;5069862;28;20068;-71
2022/12/30 09:52:32;;;;;;;9.80;2.05;;;;;;;9.80;100.00;100542.53;5063557;28;20059;-69
2022/12/30 09:55:15;;;;;;;8.55;1.50;;;;;;;9.82;100.00;100542.91;5066166;28;20055;-71
2022/12/30 09:57:45;;;;;;;7.15;1.65;;;;;;;9.94;100.00;100520.41;5067488;28;20057;-70
2022/12/30 10:00:17;;;;;;;5.00;1.17;;;;;;;9.88;100.00;100510.94;5066195;28;20771;-70
2022/12/30 10:03:02;;;;;;;12.13;1.83;;;;;;;9.95;100.00;100505.41;5067372;28;20048;-73
2022/12/30 10:06:11;;;;;;;7.55;1.83;;;;;;;9.97;100.00;100497.50;5063023;28;20067;-68
2022/12/30 10:08:53;;;;;;;2.25;0.85;;;;;;;9.99;100.00;100483.31;5060988;28;20554;-69
2022/12/30 10:11:44;;;;;;;4.65;0.98;;;;;;;9.94;100.00;100473.44;5074740;28;20513;-70
2022/12/30 10:14:48;;;;;;;12.00;2.38;;;;;;;10.15;100.00;100472.59;5067517;28;20508;-70
2022/12/30 10:17:46;;;;;;;5.43;1.42;;;;;;;10.17;100.00;100451.66;5067462;28;20044;-70
2022/12/30 10:20:43;;;;;;;2.90;0.88;;;;;;;10.23;100.00;100446.53;5065289;28;20041;-72
2022/12/30 10:23:28;;;;;;;3.15;0.82;;;;;;;10.26;100.00;100452.03;5067330;28;20483;-70
2022/12/30 10:26:12;;;;;;;5.63;1.27;;;;;;;10.42;100.00;100446.03;5067425;28;20052;-70
2022/12/30 10:28:46;;;;;;;9.65;1.58;;;;;;;10.38;100.00;100443.28;5067494;28;20059;-70
2022/12/30 10:31:19;;;;;;;5.82;1.92;;;;;;;10.44;100.00;100430.59;5070432;28;20048;-72
2022/12/30 10:33:51;;;;;;;8.63;1.25;;;;;;;10.59;100.00;100430.53;5064632;28;20107;-71
2022/12/30 10:36:46;;;;;;;8.27;1.50;;;;;;;10.54;100.00;100429.75;5067816;28;20049;-69
2022/12/30 10:39:17;;;;;;;8.48;1.77;;;;;;;10.66;100.00;100416.66;5061081;28;20049;-73
2022/12/30 10:42:14;;;;;;;1.45;0.82;;;;;;;10.70;100.00;100414.66;5062120;28;20131;-72
2022/12/30 10:45:09;;;;;;;7.60;1.50;;;;;;;10.69;100.00;100402.78;5067239;28;20077;-72
2022/12/30 10:47:51;;;;;;;1.58;1.15;;;;;;;10.76;100.00;100418.56;5068107;28;20062;-70
2022/12/30 10:50:29;;;;;;;2.30;1.05;;;;;;;10.93;100.00;100401.06;5072878;28;20051;-70
2022/12/30 10:52:57;;;;;;;1.23;0.70;;;;;;;11.01;100.00;100392.28;5067240;28;20044;-71
2022/12/30 10:55:31;;;;;;;2.40;0.93;;;;;;;11.11;100.00;100391.41;5063616;28;20502;-71
2022/12/30 10:58:01;;;;;;;8.60;1.15;;;;;;;11.04;100.00;100396.22;5063893;28;20421;-71
2022/12/30 11:00:32;;;;;;;5.80;1.33;;;;;;;11.14;100.00;100390.56;5055391;28;20059;-70
2022/12/30 11:03:04;;;;;;;2.83;0.85;;;;;;;11.07;100.00;100384.34;5052459;28;20091;-71
2022/12/30 11:05:38;;;;;;;7.35;1.77;;;;;;;10.78;100.00;100386.53;5051231;28;20056;-71
2022/12/30 11:08:18;;;;;;;6.07;1.52;;;;;;;10.90;100.00;100388.03;5063177;28;20060;-71
2022/12/30 11:11:06;;;;;;;6.97;1.40;;;;;;;10.75;100.00;100367.97;5057625;28;20057;-72
2022/12/30 11:16:30;;;;;;;7.85;1.52;;;;;;;10.81;100.00;100365.56;5073660;28;20047;-70
2022/12/30 11:19:00;;;;;;;3.50;1.00;;;;;;;10.75;100.00;100356.09;5062774;28;20045;-73
2022/12/30 11:21:30;;;;;;;5.80;1.60;;;;;;;10.71;100.00;100360.88;5070007;28;20052;-72
2022/12/30 11:23:59;;;;;;;3.90;1.30;;;;;;;10.75;100.00;100358.88;5053741;28;20053;-70
2022/12/30 11:26:28;;;;;;;4.95;1.10;;;;;;;10.79;100.00;100345.78;5034990;28;20147;-72
2022/12/30 11:28:55;;;;;;;8.23;2.05;;;;;;;10.72;100.00;100323.72;5036486;28;20699;-71
2022/12/30 11:31:29;;;;;;;7.95;1.52;;;;;;;10.63;100.00;100315.88;5038347;28;20939;-73
2022/12/30 11:33:58;;;;;;;2.07;1.23;;;;;;;10.67;100.00;100321.41;5042843;28;20060;-72
2022/12/30 11:36:28;;;;;;;4.60;1.10;;;;;;;10.70;100.00;100315.03;5040034;28;20302;-72
2022/12/30 11:39:08;;;;;;;8.90;1.63;;;;;;;10.63;100.00;100315.09;5042893;28;20044;-71
2022/12/30 11:41:56;;;;;;;3.03;1.17;;;;;;;10.69;100.00;100305.19;5035326;28;20053;-69
2022/12/30 11:44:28;;;;;;;8.27;1.25;;;;;;;10.68;100.00;100298.06;5038724;28;20052;-72
2022/12/30 11:46:58;;;;;;;9.73;1.67;;;;;;;10.65;100.00;100296.09;5046070;28;20125;-70
2022/12/30 11:49:30;;;;;;;3.17;1.15;;;;;;;10.67;100.00;100288.19;5033054;28;20149;-74
2022/12/30 11:52:07;;;;;;;12.70;1.83;;;;;;;10.71;100.00;100262.06;5033905;28;20400;-73
2022/12/30 11:54:56;;;;;;;9.80;2.28;;;;;;;10.55;100.00;100270.09;5040019;28;20055;-71
2022/12/30 11:57:30;;;;;;;3.55;1.20;;;;;;;10.63;100.00;100270.84;5038807;28;20943;-73
2022/12/30 12:00:00;;;;;;;4.28;0.85;;;;;;;10.63;100.00;100251.47;5041170;28;20048;-73
2022/12/30 12:02:38;;;;;;;4.65;1.90;;;;;;;10.62;100.00;100247.13;5037936;28;20044;-73
2022/12/30 12:05:20;;;;;;;4.30;1.40;;;;;;;10.56;100.00;100232.94;5041397;28;20062;-71
2022/12/30 12:07:49;;;;;;;10.88;2.60;;;;;;;10.65;100.00;100230.50;5039686;28;20063;-74
2022/12/30 12:10:22;;;;;;;11.50;2.90;;;;;;;10.67;100.00;100207.97;5029633;28;20746;-73
2022/12/30 12:12:55;;;;;;;0.60;0.60;;;;;;;10.59;100.00;100210.00;5039345;28;20048;-71
2022/12/30 12:15:35;;;;;;;2.33;1.45;;;;;;;10.53;100.00;100201.34;5043623;28;20066;-73
2022/12/30 12:18:14;;;;;;;;;;;;;;;10.66;100.00;100164.88;5038643;28;20577;-71
2022/12/30 12:20:52;;;;;;;8.30;1.90;;;;;;;10.61;100.00;100152.28;5042792;28;19924;-73
2022/12/30 12:23:28;;;;;;;12.90;2.10;;;;;;;10.66;100.00;100151.81;5033971;28;20102;-73
2022/12/30 12:26:01;;;;;;;5.63;1.80;;;;;;;10.65;100.00;100150.25;5046322;28;21088;-72
2022/12/30 12:28:30;;;;;;;7.40;2.10;;;;;;;10.63;100.00;100126.97;5028450;28;20178;-71
2022/12/30 12:31:08;;;;;;;6.80;1.88;;;;;;;10.66;100.00;100109.56;5033981;28;20048;-72